Time;durP1;ratioP1;P1;durP2;ratioP2;P2;SDS_P1;SDS_P2;PMS_P1;PMS_P2;Temp;Humidity;BMP_temperature;BMP_pressure;BME280_temperature;BME280_humidity;BME280_pressure;Samples;Min_cycle;Max_cycle;Signal;HPM_P1;HPM_P2
2021/11/24 00:00:09;;;;;;;25.97;14.17;;;6.50;99.90;;;;;;5066137;28;20181;-74
2021/11/24 00:02:35;;;;;;;24.00;14.30;;;6.40;99.90;;;;;;5065484;28;20632;-74
2021/11/24 00:05:01;;;;;;;29.90;14.90;;;6.50;99.90;;;;;;5066071;28;20205;-73
2021/11/24 00:07:27;;;;;;;25.27;13.40;;;6.50;99.90;;;;;;5065894;28;20181;-77
2021/11/24 00:09:52;;;;;;;25.10;13.87;;;6.50;99.90;;;;;;5065843;28;20184;-76
2021/11/24 00:12:18;;;;;;;27.97;14.67;;;6.50;99.90;;;;;;5065479;28;20201;-75
2021/11/24 00:14:44;;;;;;;25.30;14.27;;;6.50;99.90;;;;;;5047117;28;20752;-76
2021/11/24 00:17:09;;;;;;;27.50;14.80;;;6.50;99.90;;;;;;5065640;28;20628;-76
2021/11/24 00:19:35;;;;;;;26.50;15.00;;;6.50;99.90;;;;;;5065576;28;20190;-74
2021/11/24 00:22:01;;;;;;;27.17;14.73;;;6.50;99.90;;;;;;5065530;28;20533;-74
2021/11/24 00:24:26;;;;;;;32.13;14.93;;;6.50;99.90;;;;;;5065023;28;20245;-74
2021/11/24 00:26:52;;;;;;;27.97;14.37;;;6.50;99.90;;;;;;5065703;28;20268;-76
2021/11/24 00:29:18;;;;;;;27.87;14.10;;;6.50;99.90;;;;;;5065542;28;20617;-76
2021/11/24 00:31:43;;;;;;;29.37;13.77;;;6.60;99.90;;;;;;5065732;28;20225;-75
2021/11/24 00:34:09;;;;;;;27.33;13.83;;;6.60;99.90;;;;;;5064768;28;20236;-77
2021/11/24 00:36:35;;;;;;;39.33;15.23;;;6.60;99.90;;;;;;5066039;28;20193;-74
2021/11/24 00:39:00;;;;;;;27.80;14.60;;;6.50;99.90;;;;;;5065944;28;20196;-74
2021/11/24 00:41:26;;;;;;;26.13;14.43;;;6.50;99.90;;;;;;5047761;28;20189;-74
2021/11/24 00:43:52;;;;;;;28.07;14.97;;;6.50;99.90;;;;;;5064620;28;20244;-73
2021/11/24 00:46:17;;;;;;;28.77;14.40;;;6.60;99.90;;;;;;5065646;28;20177;-74
2021/11/24 00:48:43;;;;;;;24.37;14.10;;;6.60;99.90;;;;;;5065340;28;20648;-75
2021/11/24 00:51:09;;;;;;;27.33;14.30;;;6.70;99.90;;;;;;5065586;28;20184;-73
2021/11/24 00:53:34;;;;;;;27.27;14.40;;;6.70;99.90;;;;;;5064866;28;20210;-76
2021/11/24 00:56:00;;;;;;;29.60;15.10;;;6.70;99.90;;;;;;5065654;28;20745;-76
2021/11/24 00:58:25;;;;;;;27.47;14.30;;;6.60;99.90;;;;;;5064629;28;20598;-76
2021/11/24 01:00:51;;;;;;;26.93;14.83;;;6.70;99.90;;;;;;5065581;28;20185;-75
2021/11/24 01:03:17;;;;;;;24.83;13.43;;;6.70;99.90;;;;;;5065067;28;20567;-74
2021/11/24 01:05:45;;;;;;;27.50;14.33;;;6.70;99.90;;;;;;5048533;28;20251;-74
2021/11/24 01:08:12;;;;;;;27.13;14.20;;;6.60;99.90;;;;;;5066434;28;20184;-75
2021/11/24 01:10:38;;;;;;;23.63;13.80;;;6.60;99.90;;;;;;5066023;28;20185;-75
2021/11/24 01:13:04;;;;;;;25.97;14.17;;;6.60;99.90;;;;;;5047243;28;20216;-75
2021/11/24 01:15:31;;;;;;;27.50;14.47;;;6.50;99.90;;;;;;5047831;28;20189;-73
2021/11/24 01:17:56;;;;;;;28.63;14.57;;;6.60;99.90;;;;;;5053884;28;20231;-77
2021/11/24 01:20:22;;;;;;;34.03;15.43;;;6.60;99.90;;;;;;5065448;28;20198;-74
2021/11/24 01:22:48;;;;;;;27.73;13.90;;;6.60;99.90;;;;;;5063949;28;20208;-74
2021/11/24 01:25:14;;;;;;;25.60;14.70;;;6.60;99.90;;;;;;5069424;28;20213;-77
2021/11/24 01:27:41;;;;;;;27.60;15.10;;;6.50;99.90;;;;;;5065739;28;20238;-74
2021/11/24 01:30:09;;;;;;;27.67;14.77;;;6.50;99.90;;;;;;5065247;28;20181;-74
2021/11/24 01:32:35;;;;;;;28.80;15.47;;;6.60;99.90;;;;;;5064086;28;20279;-74
2021/11/24 01:35:02;;;;;;;26.50;14.73;;;6.60;99.90;;;;;;5047126;28;20633;-74
2021/11/24 01:37:28;;;;;;;29.63;14.67;;;6.60;99.90;;;;;;5047242;28;20276;-74
2021/11/24 01:39:53;;;;;;;26.83;13.87;;;6.50;99.90;;;;;;5065189;28;20304;-74
2021/11/24 01:42:19;;;;;;;27.43;14.00;;;6.50;99.90;;;;;;5057661;28;20288;-75
2021/11/24 01:44:45;;;;;;;28.90;14.13;;;6.50;99.90;;;;;;5063853;28;20209;-74
2021/11/24 01:47:12;;;;;;;29.30;14.40;;;6.50;99.90;;;;;;5065403;28;20179;-74
2021/11/24 01:49:38;;;;;;;29.53;14.27;;;6.50;99.90;;;;;;5065639;28;20260;-76
2021/11/24 01:52:04;;;;;;;26.87;14.43;;;6.50;99.90;;;;;;5065643;28;20284;-74
2021/11/24 01:54:30;;;;;;;28.77;14.90;;;6.60;99.90;;;;;;5065121;28;20270;-75
2021/11/24 01:56:57;;;;;;;27.80;13.77;;;6.60;99.90;;;;;;5066088;28;20192;-77
2021/11/24 01:59:23;;;;;;;25.20;14.23;;;6.60;99.90;;;;;;5065423;28;20264;-77
2021/11/24 02:01:50;;;;;;;29.07;15.03;;;6.60;99.90;;;;;;5065004;28;20238;-75
2021/11/24 02:04:16;;;;;;;25.70;13.00;;;6.60;99.90;;;;;;5064490;28;20540;-73
2021/11/24 02:06:43;;;;;;;22.73;12.70;;;6.60;99.90;;;;;;5064161;28;20231;-78
2021/11/24 02:09:09;;;;;;;22.77;12.80;;;6.60;99.90;;;;;;5064976;28;20196;-75
2021/11/24 02:11:37;;;;;;;22.87;13.17;;;6.60;99.90;;;;;;5064907;28;20730;-76
2021/11/24 02:14:04;;;;;;;21.97;12.00;;;6.60;99.90;;;;;;5063986;28;20186;-74
2021/11/24 02:16:30;;;;;;;22.03;13.00;;;6.60;99.90;;;;;;5064390;28;20541;-75
2021/11/24 02:18:56;;;;;;;25.53;12.57;;;6.50;99.90;;;;;;5064878;28;20177;-73
2021/11/24 02:21:21;;;;;;;26.50;13.00;;;6.60;99.90;;;;;;5046639;28;20200;-75
2021/11/24 02:23:47;;;;;;;26.40;13.63;;;6.60;99.90;;;;;;5064127;28;20790;-77
2021/11/24 02:26:13;;;;;;;25.23;13.70;;;6.60;99.90;;;;;;5064412;28;20170;-76
2021/11/24 02:28:41;;;;;;;25.07;12.87;;;6.60;99.90;;;;;;5064299;28;20177;-73
2021/11/24 02:31:17;;;;;;;23.20;12.63;;;6.70;99.90;;;;;;5064370;28;20610;-73
2021/11/24 02:33:51;;;;;;;25.83;14.07;;;6.50;99.90;;;;;;5063752;28;20573;-74
2021/11/24 02:36:17;;;;;;;26.57;13.40;;;6.50;99.90;;;;;;5064281;28;20182;-75
2021/11/24 02:38:44;;;;;;;26.30;13.93;;;6.50;99.90;;;;;;5064000;28;20182;-77
2021/11/24 02:41:10;;;;;;;25.83;13.90;;;6.50;99.90;;;;;;5063872;28;20622;-77
2021/11/24 02:43:35;;;;;;;26.43;13.73;;;6.60;99.90;;;;;;5063561;28;20248;-75
2021/11/24 02:46:01;;;;;;;26.43;13.30;;;6.60;99.90;;;;;;5065901;28;20178;-76
2021/11/24 02:48:26;;;;;;;27.53;14.57;;;6.50;99.90;;;;;;5068083;28;20242;-73
2021/11/24 02:50:56;;;;;;;27.93;13.70;;;6.50;99.90;;;;;;5067697;28;20205;-76
2021/11/24 02:53:29;;;;;;;30.90;14.87;;;6.50;99.90;;;;;;5067093;28;20205;-75
2021/11/24 02:55:55;;;;;;;28.87;14.60;;;6.50;99.90;;;;;;5066931;28;20174;-77
2021/11/24 02:58:21;;;;;;;29.50;14.40;;;6.50;99.90;;;;;;5067848;28;20205;-74
2021/11/24 03:00:47;;;;;;;32.60;14.90;;;6.40;99.90;;;;;;5067861;28;20637;-74
2021/11/24 03:03:13;;;;;;;27.07;13.93;;;6.40;99.90;;;;;;5066571;28;20212;-75
2021/11/24 03:05:38;;;;;;;26.77;13.90;;;6.30;99.90;;;;;;5067938;28;20181;-73
2021/11/24 03:08:05;;;;;;;26.70;12.80;;;6.40;99.90;;;;;;5067430;28;20178;-74
2021/11/24 03:10:31;;;;;;;30.30;14.13;;;6.40;99.90;;;;;;5067387;28;20178;-74
2021/11/24 03:12:57;;;;;;;27.07;13.50;;;6.40;99.90;;;;;;5067159;28;20276;-73
2021/11/24 03:15:23;;;;;;;26.30;14.20;;;6.40;99.90;;;;;;5067447;28;20188;-73
2021/11/24 03:17:49;;;;;;;26.57;13.47;;;6.40;99.90;;;;;;5067562;28;20174;-73
2021/11/24 03:20:15;;;;;;;27.73;13.33;;;6.30;99.90;;;;;;5066947;28;20181;-73
2021/11/24 03:22:40;;;;;;;27.20;13.83;;;6.30;99.90;;;;;;5066846;28;20693;-73
2021/11/24 03:25:08;;;;;;;26.50;14.47;;;6.30;99.90;;;;;;5066861;28;20335;-74
2021/11/24 03:27:37;;;;;;;25.93;13.40;;;6.30;99.90;;;;;;5066487;28;20170;-76
2021/11/24 03:30:11;;;;;;;31.80;14.33;;;6.30;99.90;;;;;;5067086;28;20486;-74
2021/11/24 03:32:37;;;;;;;26.00;13.27;;;6.30;99.90;;;;;;5067035;28;20623;-75
2021/11/24 03:35:04;;;;;;;28.13;13.47;;;6.30;99.90;;;;;;5067885;28;20235;-75
2021/11/24 03:37:29;;;;;;;30.00;12.87;;;6.30;99.90;;;;;;5066752;28;20189;-75
2021/11/24 03:39:55;;;;;;;28.23;14.03;;;6.20;99.90;;;;;;5067007;28;20177;-76
2021/11/24 03:42:21;;;;;;;24.47;12.83;;;6.20;99.90;;;;;;5067067;28;20201;-76
2021/11/24 03:44:47;;;;;;;25.77;12.80;;;6.10;99.90;;;;;;5066074;28;20236;-74
2021/11/24 03:47:13;;;;;;;27.47;13.93;;;6.10;99.90;;;;;;5065009;28;20613;-76
2021/11/24 03:49:39;;;;;;;28.57;14.60;;;6.20;99.90;;;;;;5066387;28;20177;-77
2021/11/24 03:52:05;;;;;;;30.03;13.77;;;6.20;99.90;;;;;;5062687;28;20205;-76
2021/11/24 03:54:31;;;;;;;27.00;13.40;;;6.10;99.90;;;;;;5065042;28;20181;-74
2021/11/24 03:56:57;;;;;;;27.83;14.10;;;6.10;99.90;;;;;;5066338;28;20216;-74
2021/11/24 03:59:23;;;;;;;26.00;13.63;;;6.10;99.90;;;;;;5067042;28;20272;-74
2021/11/24 04:01:49;;;;;;;27.30;14.30;;;6.20;99.90;;;;;;5066614;28;20186;-75
2021/11/24 04:04:14;;;;;;;26.63;12.43;;;6.30;99.90;;;;;;5066095;28;20213;-75
2021/11/24 04:06:40;;;;;;;27.87;12.93;;;6.20;99.90;;;;;;5066508;28;20200;-75
2021/11/24 04:09:05;;;;;;;25.30;13.73;;;6.20;99.90;;;;;;5066615;28;20214;-74
2021/11/24 04:11:31;;;;;;;25.83;13.07;;;6.20;99.90;;;;;;5066028;28;20182;-76
2021/11/24 04:13:57;;;;;;;27.17;12.30;;;6.30;99.90;;;;;;5065382;28;20200;-75
2021/11/24 04:16:23;;;;;;;23.47;12.33;;;6.30;99.90;;;;;;5066609;28;20189;-75
2021/11/24 04:18:49;;;;;;;24.30;12.70;;;6.30;99.90;;;;;;5066468;28;20178;-76
2021/11/24 04:21:16;;;;;;;23.20;11.00;;;6.30;99.90;;;;;;5065702;28;20553;-76
2021/11/24 04:23:43;;;;;;;24.93;13.07;;;6.20;99.90;;;;;;5064872;28;20205;-75
2021/11/24 04:26:08;;;;;;;26.10;13.23;;;6.20;99.90;;;;;;5065821;28;20192;-76
2021/11/24 04:28:34;;;;;;;26.37;12.90;;;6.20;99.90;;;;;;5069312;28;20536;-78
2021/11/24 04:31:05;;;;;;;24.43;12.77;;;6.20;99.90;;;;;;5066261;28;20549;-77
2021/11/24 04:33:30;;;;;;;26.33;12.80;;;6.10;99.90;;;;;;5065115;28;20200;-76
2021/11/24 04:35:57;;;;;;;29.67;14.33;;;6.10;99.90;;;;;;5067120;28;20185;-75
2021/11/24 04:38:23;;;;;;;30.17;13.07;;;6.10;99.90;;;;;;5066527;28;20219;-75
2021/11/24 04:40:48;;;;;;;24.83;12.57;;;6.10;99.90;;;;;;5066911;28;20260;-77
2021/11/24 04:43:16;;;;;;;29.67;13.03;;;6.20;99.90;;;;;;5065476;28;20224;-74
2021/11/24 04:45:43;;;;;;;29.83;13.50;;;6.20;99.90;;;;;;5066096;28;20288;-76
2021/11/24 04:48:09;;;;;;;23.40;12.03;;;6.20;99.90;;;;;;5047443;28;20197;-75
2021/11/24 04:50:34;;;;;;;25.53;13.23;;;6.20;99.90;;;;;;5066157;28;20213;-75
2021/11/24 04:53:00;;;;;;;29.77;13.80;;;6.20;99.90;;;;;;5064675;28;20221;-75
2021/11/24 04:55:26;;;;;;;29.13;13.60;;;6.30;99.90;;;;;;5063169;28;20182;-75
2021/11/24 04:57:52;;;;;;;29.13;13.27;;;6.30;99.90;;;;;;5066194;28;20178;-75
2021/11/24 05:00:21;;;;;;;24.33;13.57;;;6.20;99.90;;;;;;5064921;28;20188;-75
2021/11/24 05:02:48;;;;;;;27.10;14.20;;;6.20;99.90;;;;;;5047832;28;20246;-74
2021/11/24 05:05:14;;;;;;;25.00;12.37;;;6.30;99.90;;;;;;5064652;28;20205;-75
2021/11/24 05:07:40;;;;;;;27.07;13.33;;;6.40;99.90;;;;;;5065911;28;20219;-74
2021/11/24 05:10:06;;;;;;;26.70;12.83;;;6.30;99.90;;;;;;5065702;28;20173;-78
2021/11/24 05:12:34;;;;;;;24.53;12.20;;;6.40;99.90;;;;;;5065553;28;20547;-75
2021/11/24 05:15:01;;;;;;;25.60;12.53;;;6.30;99.90;;;;;;5047517;28;20652;-78
2021/11/24 05:17:28;;;;;;;23.27;11.93;;;6.30;99.90;;;;;;5065033;28;20654;-75
2021/11/24 05:19:54;;;;;;;23.93;11.53;;;6.10;99.90;;;;;;5065220;28;20216;-77
2021/11/24 05:22:20;;;;;;;29.10;12.87;;;6.10;99.90;;;;;;5065263;28;21231;-76
2021/11/24 05:24:46;;;;;;;25.40;12.77;;;6.00;99.90;;;;;;5064566;28;20315;-77
2021/11/24 05:27:14;;;;;;;24.37;11.90;;;6.00;99.90;;;;;;5065214;28;20661;-75
2021/11/24 05:29:40;;;;;;;23.37;11.70;;;6.00;99.90;;;;;;5065385;28;20540;-79
2021/11/24 05:34:55;;;;;;;23.00;11.57;;;6.00;99.90;;;;;;5062530;28;20229;-75
2021/11/24 05:37:30;;;;;;;22.87;12.03;;;6.00;99.90;;;;;;5065211;28;20213;-75
2021/11/24 05:40:05;;;;;;;22.63;11.73;;;6.00;99.90;;;;;;5054837;28;20578;-76
2021/11/24 05:46:15;;;;;;;20.17;9.97;;;6.00;99.90;;;;;;4964219;28;20659;-76
2021/11/24 05:49:11;;;;;;;22.57;11.90;;;6.00;99.90;;;;;;5055618;28;20299;-75
2021/11/24 05:51:46;;;;;;;24.87;11.83;;;6.00;99.90;;;;;;5043887;28;20248;-75
2021/11/24 05:57:50;;;;;;;23.10;10.03;;;6.00;99.90;;;;;;5049826;28;20190;-75
2021/11/24 06:00:43;;;;;;;20.23;10.63;;;6.00;99.90;;;;;;5052222;28;20177;-75
2021/11/24 06:03:27;;;;;;;22.30;11.30;;;6.10;99.90;;;;;;5046404;28;20222;-75
2021/11/24 06:06:14;;;;;;;19.03;9.43;;;6.10;99.90;;;;;;5052316;28;20231;-75
2021/11/24 06:09:00;;;;;;;22.60;11.20;;;6.10;99.90;;;;;;5042923;28;20182;-76
2021/11/24 06:11:28;;;;;;;21.17;10.33;;;6.00;99.90;;;;;;5054553;28;20563;-78
2021/11/24 06:21:03;;;;;;;21.13;10.20;;;6.10;99.90;;;;;;4985466;28;20191;-76
2021/11/24 06:26:51;;;;;;;19.00;9.93;;;6.10;99.90;;;;;;5027414;28;20616;-77
2021/11/24 06:29:25;;;;;;;20.37;10.37;;;6.10;99.90;;;;;;5055106;28;20641;-76
2021/11/24 06:31:59;;;;;;;21.13;11.00;;;6.20;99.90;;;;;;5058604;28;20198;-76
2021/11/24 06:34:55;;;;;;;19.10;10.57;;;6.10;99.90;;;;;;5038794;28;20197;-74
2021/11/24 06:37:32;;;;;;;21.23;10.60;;;6.00;99.90;;;;;;5056025;28;20182;-76
2021/11/24 06:40:42;;;;;;;19.70;9.23;;;6.00;99.90;;;;;;5056874;28;20178;-74
2021/11/24 06:43:47;;;;;;;18.40;9.50;;;6.00;99.90;;;;;;4965494;28;20735;-76
2021/11/24 06:46:28;;;;;;;20.23;9.83;;;6.10;99.90;;;;;;5005238;28;20189;-76
2021/11/24 06:49:45;;;;;;;;;;;;;;;;;;;;;
2021/11/24 06:52:39;;;;;;;18.97;9.80;;;6.00;99.90;;;;;;5057190;28;20208;-76
2021/11/24 06:59:58;;;;;;;;;;;;;;;;;;;;;
2021/11/24 07:02:59;;;;;;;16.73;9.33;;;5.90;99.90;;;;;;4950739;28;20227;-82
2021/11/24 07:06:15;;;;;;;19.03;9.90;;;5.90;99.90;;;;;;4975289;28;20195;-76
2021/11/24 07:09:36;;;;;;;17.70;9.03;;;6.00;99.90;;;;;;4968557;28;20199;-75
2021/11/24 07:12:54;;;;;;;;;;;;;;;;;;;;;
2021/11/24 07:23:09;;;;;;;19.50;9.97;;;5.90;99.90;;;;;;5106054;22;20279;-74
2021/11/24 07:26:21;;;;;;;17.67;10.03;;;6.00;99.90;;;;;;5054624;28;20190;-76
2021/11/24 07:38:18;;;;;;;18.30;9.83;;;6.10;99.90;;;;;;5027287;28;20848;-76
2021/11/24 07:41:29;;;;;;;18.17;9.20;;;6.10;99.90;;;;;;5026078;28;20195;-74
2021/11/24 07:48:03;;;;;;;19.47;9.70;;;6.10;99.90;;;;;;4917872;29;20189;-77
2021/11/24 07:51:37;;;;;;;17.47;8.50;;;6.10;99.90;;;;;;4978885;28;20270;-75
2021/11/24 08:03:52;;;;;;;16.07;8.80;;;6.20;99.90;;;;;;5063609;23;20308;-78
2021/11/24 08:06:18;;;;;;;21.97;12.73;;;6.30;99.90;;;;;;5051941;28;20610;-78
2021/11/24 08:08:43;;;;;;;22.20;12.37;;;6.30;99.90;;;;;;5060031;28;20189;-81
2021/11/24 08:11:09;;;;;;;22.73;11.93;;;6.30;99.90;;;;;;5058506;28;20448;-77
2021/11/24 08:13:34;;;;;;;23.27;11.03;;;6.40;99.90;;;;;;5071949;28;20200;-78
2021/11/24 08:16:00;;;;;;;19.40;10.63;;;6.40;99.90;;;;;;5059205;28;20220;-77
2021/11/24 08:18:26;;;;;;;17.73;9.43;;;6.50;99.90;;;;;;5077300;28;20189;-79
2021/11/24 08:20:52;;;;;;;20.27;10.57;;;6.50;99.90;;;;;;5065438;28;20567;-79
2021/11/24 08:23:18;;;;;;;16.23;9.97;;;6.50;99.90;;;;;;5067321;28;20192;-77
2021/11/24 08:25:44;;;;;;;19.87;11.10;;;6.60;99.90;;;;;;5053457;28;20201;-78
2021/11/24 08:28:09;;;;;;;20.10;10.60;;;6.60;99.90;;;;;;5047848;28;20178;-78
2021/11/24 08:30:36;;;;;;;20.10;10.70;;;6.70;99.90;;;;;;5057657;28;20199;-77
2021/11/24 08:33:01;;;;;;;19.10;10.40;;;6.80;99.90;;;;;;5067991;28;20181;-79
2021/11/24 08:35:27;;;;;;;18.97;10.27;;;6.80;99.90;;;;;;5066558;28;20220;-79
2021/11/24 08:37:53;;;;;;;17.60;10.03;;;6.90;99.90;;;;;;5055498;28;20185;-78
2021/11/24 08:40:19;;;;;;;19.80;10.63;;;6.90;99.90;;;;;;5067175;28;20190;-78
2021/11/24 08:42:44;;;;;;;21.33;9.33;;;6.90;99.90;;;;;;5051344;28;20426;-80
2021/11/24 08:45:11;;;;;;;14.73;8.30;;;7.00;99.90;;;;;;5048299;28;20584;-78
2021/11/24 08:47:39;;;;;;;14.10;8.30;;;7.10;99.90;;;;;;5064093;28;20621;-78
2021/11/24 08:50:08;;;;;;;13.97;7.60;;;7.00;99.90;;;;;;5054437;28;20181;-79
2021/11/24 08:52:33;;;;;;;13.53;7.33;;;7.10;99.90;;;;;;5050519;28;20238;-78
2021/11/24 08:54:59;;;;;;;14.83;8.77;;;7.10;99.90;;;;;;5045086;28;20209;-79
2021/11/24 08:57:25;;;;;;;14.53;8.77;;;7.20;99.90;;;;;;5049405;28;20783;-79
2021/11/24 08:59:50;;;;;;;17.40;8.70;;;7.20;99.90;;;;;;5050326;28;20182;-78
2021/11/24 09:02:16;;;;;;;14.87;8.53;;;7.20;99.90;;;;;;5047953;28;20208;-79
2021/11/24 09:04:43;;;;;;;16.10;8.77;;;7.30;99.90;;;;;;5048728;28;20223;-78
2021/11/24 09:07:09;;;;;;;15.47;8.23;;;7.20;99.90;;;;;;5072185;28;20185;-80
2021/11/24 09:09:38;;;;;;;17.40;8.23;;;7.30;99.90;;;;;;5064415;28;20201;-77
2021/11/24 09:12:04;;;;;;;17.33;8.97;;;7.40;99.90;;;;;;5050450;28;20188;-78
2021/11/24 09:14:29;;;;;;;13.80;8.03;;;7.40;99.90;;;;;;5054598;28;20213;-80
2021/11/24 09:16:55;;;;;;;14.50;7.90;;;7.30;99.90;;;;;;5050345;28;20193;-79
2021/11/24 09:19:21;;;;;;;13.57;7.53;;;7.30;99.90;;;;;;5062415;28;20351;-81
2021/11/24 09:21:46;;;;;;;13.83;8.00;;;7.40;99.90;;;;;;5045814;28;20548;-79
2021/11/24 09:24:15;;;;;;;14.80;8.30;;;7.40;99.90;;;;;;5067055;28;20223;-79
2021/11/24 09:26:43;;;;;;;14.40;8.30;;;7.40;99.90;;;;;;5057890;28;20602;-80
2021/11/24 09:29:10;;;;;;;14.80;8.07;;;7.40;99.90;;;;;;5064443;28;20454;-79
2021/11/24 09:31:36;;;;;;;12.37;7.40;;;7.40;99.90;;;;;;5048578;28;20189;-79
2021/11/24 09:34:02;;;;;;;15.17;8.47;;;7.40;99.90;;;;;;5053252;28;20574;-80
2021/11/24 09:36:28;;;;;;;14.07;7.80;;;7.40;99.90;;;;;;5049669;28;20420;-77
2021/11/24 09:38:55;;;;;;;14.43;7.40;;;7.40;99.90;;;;;;5064228;28;20189;-81
2021/11/24 09:41:22;;;;;;;14.70;7.30;;;7.30;99.90;;;;;;5043325;28;20562;-80
2021/11/24 09:43:50;;;;;;;12.27;7.33;;;7.30;99.90;;;;;;5061350;28;20206;-78
2021/11/24 09:46:17;;;;;;;12.43;6.53;;;7.30;99.90;;;;;;5046829;28;20182;-82
2021/11/24 09:48:43;;;;;;;12.03;7.00;;;7.30;99.90;;;;;;5065928;28;20208;-78
2021/11/24 09:51:10;;;;;;;14.40;7.47;;;7.40;99.90;;;;;;5043805;28;20430;-78
2021/11/24 09:53:38;;;;;;;14.17;7.37;;;7.40;99.90;;;;;;5064759;28;20193;-78
2021/11/24 09:56:04;;;;;;;11.63;6.80;;;7.50;99.90;;;;;;5046651;28;20216;-80
2021/11/24 09:58:30;;;;;;;17.83;7.40;;;7.50;99.90;;;;;;5063237;28;20693;-76
2021/11/24 10:00:58;;;;;;;12.80;7.37;;;7.40;99.90;;;;;;5047629;28;20193;-79
2021/11/24 10:03:25;;;;;;;12.90;7.50;;;7.40;99.90;;;;;;5048626;28;20204;-81
2021/11/24 10:05:52;;;;;;;12.63;7.13;;;7.30;99.90;;;;;;5072055;28;20495;-78
2021/11/24 10:08:18;;;;;;;21.03;12.00;;;7.40;99.90;;;;;;5048808;28;20213;-80
2021/11/24 10:10:44;;;;;;;37.73;23.80;;;7.40;99.90;;;;;;5045233;28;20182;-78
2021/11/24 10:13:10;;;;;;;15.03;8.00;;;7.40;99.90;;;;;;5048288;28;20185;-78
2021/11/24 10:15:41;;;;;;;11.63;7.23;;;7.40;99.90;;;;;;5051533;28;20205;-79
2021/11/24 10:18:23;;;;;;;10.77;6.60;;;7.40;99.90;;;;;;5050751;28;20191;-81
2021/11/24 10:21:06;;;;;;;13.53;7.47;;;7.50;99.90;;;;;;5063692;28;20310;-79
2021/11/24 10:23:39;;;;;;;12.17;6.60;;;7.40;99.90;;;;;;5052995;28;20209;-79
2021/11/24 10:26:35;;;;;;;11.87;6.30;;;7.40;99.90;;;;;;5049552;28;20193;-80
2021/11/24 10:29:00;;;;;;;11.40;7.10;;;7.40;99.90;;;;;;5052102;28;20238;-82
2021/11/24 10:31:35;;;;;;;9.60;5.47;;;7.40;99.90;;;;;;5074620;28;20189;-80
2021/11/24 10:34:26;;;;;;;10.77;6.20;;;7.50;99.90;;;;;;5054412;28;20277;-78
2021/11/24 10:37:06;;;;;;;9.63;5.93;;;7.60;99.90;;;;;;5044103;28;20208;-79
2021/11/24 10:39:40;;;;;;;10.67;5.90;;;7.60;99.90;;;;;;5043861;28;20185;-81
2021/11/24 10:42:21;;;;;;;8.00;5.33;;;7.60;99.90;;;;;;5064536;28;20531;-75
2021/11/24 10:44:56;;;;;;;10.57;5.50;;;7.60;99.90;;;;;;5046318;28;20698;-79
2021/11/24 10:47:23;;;;;;;11.60;5.93;;;7.60;99.90;;;;;;5072447;28;20185;-79
2021/11/24 10:50:01;;;;;;;12.20;7.87;;;7.60;99.90;;;;;;5054465;28;20186;-80
2021/11/24 10:52:33;;;;;;;10.23;6.30;;;7.60;99.90;;;;;;5064950;28;20220;-77
2021/11/24 10:55:10;;;;;;;11.83;5.70;;;7.60;99.90;;;;;;5041840;28;20687;-78
2021/11/24 10:57:38;;;;;;;10.43;4.90;;;7.70;99.90;;;;;;5042403;28;20192;-82
2021/11/24 11:00:15;;;;;;;10.07;5.97;;;7.70;99.90;;;;;;5043365;28;20211;-78
2021/11/24 11:02:44;;;;;;;10.97;6.40;;;7.70;99.90;;;;;;5051600;28;20204;-76
2021/11/24 11:05:29;;;;;;;10.50;6.57;;;7.70;99.90;;;;;;5046457;28;20221;-77
2021/11/24 11:08:03;;;;;;;9.70;5.60;;;7.70;99.90;;;;;;5049389;28;20190;-79
2021/11/24 11:10:59;;;;;;;10.83;5.93;;;7.80;99.90;;;;;;5051105;28;20212;-78
2021/11/24 11:13:30;;;;;;;10.53;6.23;;;7.80;99.90;;;;;;5047438;28;20194;-78
2021/11/24 11:15:57;;;;;;;10.63;6.20;;;7.80;99.90;;;;;;5055761;28;20686;-78
2021/11/24 11:18:26;;;;;;;9.43;6.27;;;7.90;99.90;;;;;;5051388;28;20498;-79
2021/11/24 11:21:09;;;;;;;8.90;5.80;;;7.90;99.90;;;;;;5066375;28;20382;-79
2021/11/24 11:23:36;;;;;;;8.27;5.40;;;8.00;99.90;;;;;;5057035;28;20205;-79
2021/11/24 11:26:15;;;;;;;5.90;3.53;;;8.00;99.90;;;;;;5061065;28;20650;-80
2021/11/24 11:28:43;;;;;;;5.77;3.60;;;8.10;99.90;;;;;;5081730;28;20184;-80
2021/11/24 11:31:11;;;;;;;6.30;3.47;;;8.10;99.90;;;;;;5066646;28;20189;-81
2021/11/24 11:33:43;;;;;;;27.13;14.93;;;8.20;99.90;;;;;;5078776;28;20186;-80
2021/11/24 11:36:11;;;;;;;26.57;18.00;;;8.10;99.90;;;;;;5052666;28;20464;-78
2021/11/24 11:38:40;;;;;;;16.90;11.13;;;8.10;99.90;;;;;;5047447;28;20185;-78
2021/11/24 11:41:06;;;;;;;11.80;8.10;;;8.00;99.90;;;;;;5046482;28;20204;-78
2021/11/24 11:43:33;;;;;;;6.73;4.20;;;8.00;99.90;;;;;;5050527;28;20362;-77
2021/11/24 11:46:14;;;;;;;5.23;2.83;;;8.00;99.90;;;;;;5047112;28;20546;-73
2021/11/24 11:48:40;;;;;;;3.50;2.37;;;7.90;99.90;;;;;;5047285;28;20591;-77
2021/11/24 11:51:06;;;;;;;4.97;3.90;;;7.90;99.90;;;;;;5069723;28;20185;-78
2021/11/24 11:53:40;;;;;;;3.77;3.00;;;7.90;99.90;;;;;;5046897;28;20181;-78
2021/11/24 11:56:05;;;;;;;3.83;2.77;;;7.80;99.90;;;;;;5049544;28;20711;-80
2021/11/24 11:58:32;;;;;;;6.23;3.93;;;7.80;99.90;;;;;;5045139;28;20186;-81
2021/11/24 12:01:06;;;;;;;4.13;2.77;;;7.90;99.90;;;;;;5045171;28;20687;-78
2021/11/24 12:03:51;;;;;;;4.07;2.87;;;7.90;99.90;;;;;;5046588;28;20220;-78
2021/11/24 12:06:19;;;;;;;4.87;2.80;;;7.80;99.90;;;;;;5045450;28;20598;-80
2021/11/24 12:09:14;;;;;;;4.93;2.97;;;7.80;99.90;;;;;;5051912;28;20189;-79
2021/11/24 12:12:03;;;;;;;5.20;3.27;;;7.80;99.90;;;;;;4984459;28;20243;-78
2021/11/24 12:14:51;;;;;;;7.53;4.30;;;7.70;99.90;;;;;;5044569;28;20292;-78
2021/11/24 12:20:04;;;;;;;3.40;2.80;;;7.70;99.90;;;;;;5067695;28;20201;-77
2021/11/24 12:22:52;;;;;;;3.60;2.10;;;7.60;99.90;;;;;;5052141;28;20304;-80
2021/11/24 12:25:24;;;;;;;4.20;2.27;;;7.60;99.90;;;;;;5046764;28;20243;-80
2021/11/24 12:28:01;;;;;;;4.43;2.13;;;7.60;99.90;;;;;;5047194;28;20174;-78
2021/11/24 12:30:36;;;;;;;3.13;1.83;;;7.60;99.90;;;;;;5044025;28;20317;-79
2021/11/24 12:33:13;;;;;;;2.67;1.70;;;7.70;99.90;;;;;;5049592;28;20180;-77
2021/11/24 12:35:45;;;;;;;1.80;1.30;;;7.70;99.90;;;;;;5049848;28;20228;-80
2021/11/24 12:38:11;;;;;;;1.63;1.43;;;7.70;99.90;;;;;;5053630;28;20180;-76
2021/11/24 12:40:42;;;;;;;2.00;1.50;;;7.60;99.90;;;;;;5057944;28;20432;-80
2021/11/24 12:43:15;;;;;;;1.77;1.60;;;7.60;99.90;;;;;;5055661;28;20219;-79
2021/11/24 12:46:00;;;;;;;1.90;1.70;;;7.60;99.90;;;;;;5065592;28;20942;-78
2021/11/24 12:48:31;;;;;;;2.67;1.97;;;7.60;99.90;;;;;;5063291;28;20193;-81
2021/11/24 12:50:58;;;;;;;2.97;2.67;;;7.60;99.90;;;;;;5063522;28;20260;-77
2021/11/24 12:53:24;;;;;;;2.53;1.80;;;7.60;99.90;;;;;;5050482;28;20274;-78
2021/11/24 12:56:10;;;;;;;2.30;1.63;;;7.50;99.90;;;;;;5067956;28;20693;-77
2021/11/24 12:58:36;;;;;;;1.80;1.70;;;7.50;99.90;;;;;;5071554;28;20185;-79
2021/11/24 13:01:12;;;;;;;3.20;1.73;;;7.60;99.90;;;;;;5067578;28;20178;-77
2021/11/24 13:03:38;;;;;;;2.30;1.57;;;7.50;99.90;;;;;;5055504;28;20219;-79
2021/11/24 13:06:04;;;;;;;1.87;1.50;;;7.50;99.90;;;;;;5053418;28;20174;-79
2021/11/24 13:08:29;;;;;;;2.40;1.23;;;7.40;99.90;;;;;;5044781;28;20223;-79
2021/11/24 13:11:04;;;;;;;1.70;1.30;;;7.50;99.90;;;;;;5045222;28;20623;-78
2021/11/24 13:13:29;;;;;;;1.37;1.10;;;7.50;99.90;;;;;;5046356;28;20212;-78
2021/11/24 13:15:55;;;;;;;2.17;1.17;;;7.50;99.90;;;;;;5066999;28;20718;-81
2021/11/24 13:18:22;;;;;;;1.70;1.23;;;7.50;99.90;;;;;;5076789;28;20189;-79
2021/11/24 13:20:47;;;;;;;5.13;1.30;;;7.40;99.90;;;;;;5058384;28;20173;-79
2021/11/24 13:23:14;;;;;;;4.77;2.77;;;7.40;99.90;;;;;;5080985;28;20191;-79
2021/11/24 13:25:41;;;;;;;7.60;6.67;;;7.40;99.90;;;;;;5086407;28;20717;-77
2021/11/24 13:28:24;;;;;;;11.63;10.53;;;7.30;99.90;;;;;;5060361;28;20617;-83
2021/11/24 13:30:53;;;;;;;5.47;4.43;;;7.30;99.90;;;;;;5060710;28;20173;-78
2021/11/24 13:33:30;;;;;;;4.40;3.20;;;7.30;99.90;;;;;;5057900;28;20205;-79
2021/11/24 13:36:08;;;;;;;2.33;1.73;;;7.20;99.90;;;;;;5057980;28;20197;-81
2021/11/24 13:38:38;;;;;;;1.67;1.37;;;7.20;99.90;;;;;;5075687;28;20173;-80
2021/11/24 13:41:25;;;;;;;3.40;2.10;;;7.20;99.90;;;;;;5057308;28;20197;-79
2021/11/24 13:43:57;;;;;;;2.97;1.80;;;7.20;99.90;;;;;;5060137;28;20201;-79
2021/11/24 13:46:27;;;;;;;1.77;1.50;;;7.20;99.90;;;;;;5060134;28;20181;-80
2021/11/24 13:49:09;;;;;;;1.93;1.50;;;7.20;99.90;;;;;;5058664;28;20210;-78
2021/11/24 13:51:40;;;;;;;2.27;1.53;;;7.10;99.90;;;;;;5075771;28;20176;-78
2021/11/24 13:54:09;;;;;;;1.33;0.90;;;7.20;99.90;;;;;;5056932;28;20208;-78
2021/11/24 13:56:52;;;;;;;1.20;0.90;;;7.10;99.90;;;;;;5058096;28;20651;-77
2021/11/24 13:59:30;;;;;;;0.83;0.80;;;7.10;99.90;;;;;;5058286;28;20181;-78
2021/11/24 14:02:22;;;;;;;2.57;1.27;;;7.10;99.90;;;;;;5073790;28;20212;-79
2021/11/24 14:04:51;;;;;;;1.57;1.20;;;7.00;99.90;;;;;;5050792;28;20223;-78